Pagrindinis puslapis
METAR-TAF:

METAR-TAF

Oro uostai :

St. Mary's, Aliaska, Jungtinės Amerikos Valstijos

platuma: 62-03N, ilguma: 163-18W, Aukštis: 95 m

Dabartinis oras

Ataskaita buvo paskelbta 39 minutes, ne 21:23 UTC
Vėjas 15 kt iš Rytų/Pietryčių su gūsio iki 21 kt
Temperatūra 3°C
Drėgmė 87%
Slėgis 999 hPa
Matomumas: 16.1 km
Su prošvaistėmis ne aukštis 2600 ft
Apsiniaukę ne aukštis 3000 ft
lietus

METAR: PASM 212123Z AUTO 11015G21KT 10SM -RA BKN026 OVC030 03/01 A2951 RMK AO2 P0000

Laikas: 14:02 (22:02 UTC)


TAF: trūkstamas

Orai ataskaitas ir orų prognozės (METAR, TAF).

turimą stotys yra geltonos ir raudonos taškus žemėlapyje.

Perkelti pele per norėdami pamatyti stoties vardą.

Tada spustelėkite, norėdami matyti oro stebėjimo ir prognozės.

Norėdami pakeisti žemėlapį: spustelėkite ant žalios mygtukų su juodo kryžiaus žemyn,; žalią mygtuką su brūkšneliu, jei norite nutolinti; arba žalių rodyklių gretimoms žemėlapius.


METAR-TAF: